Time;durP1;ratioP1;P1;durP2;ratioP2;P2;SDS_P1;SDS_P2;PMS_P1;PMS_P2;Temp;Humidity;BMP_temperature;BMP_pressure;BME280_temperature;BME280_humidity;BME280_pressure;Samples;Min_cycle;Max_cycle;Signal;HPM_P1;HPM_P2
2023/06/30 00:01:48;;;;;;;5.53;1.07;;;27.90;42.10;;;;;;4989746;28;87820;-45
2023/06/30 00:04:17;;;;;;;0.83;0.60;;;27.90;42.10;;;;;;4987771;28;87649;-45
2023/06/30 00:06:49;;;;;;;0.90;0.70;;;27.90;42.20;;;;;;4988623;28;88699;-45
2023/06/30 00:09:18;;;;;;;1.47;0.80;;;27.90;42.20;;;;;;4988541;28;88993;-45
2023/06/30 00:11:49;;;;;;;1.50;1.00;;;27.90;42.20;;;;;;4993382;28;89852;-45
2023/06/30 00:14:18;;;;;;;1.07;0.60;;;27.90;42.10;;;;;;4991164;28;87677;-45
2023/06/30 00:16:46;;;;;;;0.40;0.40;;;27.90;42.10;;;;;;4981268;28;89921;-45
2023/06/30 00:19:14;;;;;;;1.83;0.80;;;28.00;42.20;;;;;;4986907;28;89167;-45
2023/06/30 00:21:42;;;;;;;1.37;0.60;;;28.00;42.10;;;;;;4988192;28;89081;-45
2023/06/30 00:24:11;;;;;;;1.37;0.53;;;28.00;42.10;;;;;;4989575;28;87769;-45
2023/06/30 00:26:39;;;;;;;1.17;0.40;;;27.90;42.10;;;;;;4989488;28;88248;-45
2023/06/30 00:29:08;;;;;;;0.50;0.30;;;28.00;42.10;;;;;;4983016;28;87724;-46
2023/06/30 00:31:37;;;;;;;1.27;0.73;;;28.00;42.10;;;;;;4987879;28;88655;-45
2023/06/30 00:34:05;;;;;;;1.80;0.67;;;28.00;42.20;;;;;;4990792;28;88206;-45
2023/06/30 00:36:33;;;;;;;2.73;0.60;;;28.00;42.30;;;;;;4984932;28;88791;-45
2023/06/30 00:39:02;;;;;;;1.40;0.90;;;28.00;42.30;;;;;;4989172;28;87686;-45
2023/06/30 00:41:31;;;;;;;2.63;1.00;;;28.00;42.30;;;;;;4996981;28;87596;-45
2023/06/30 00:43:59;;;;;;;0.90;0.80;;;27.90;42.20;;;;;;5000946;28;87681;-45
2023/06/30 00:46:28;;;;;;;1.83;0.80;;;27.90;42.20;;;;;;4983629;28;89576;-45
2023/06/30 00:48:58;;;;;;;1.60;1.00;;;27.90;42.20;;;;;;4981868;28;87608;-45
2023/06/30 00:51:26;;;;;;;1.73;1.00;;;28.00;42.30;;;;;;4984838;28;87734;-45
2023/06/30 00:53:54;;;;;;;1.93;1.43;;;27.90;42.20;;;;;;4994615;28;87677;-45
2023/06/30 00:56:23;;;;;;;1.30;1.00;;;27.90;42.30;;;;;;4980849;28;89392;-45
2023/06/30 00:58:52;;;;;;;1.53;0.90;;;27.90;42.20;;;;;;4997994;28;89911;-45
2023/06/30 01:01:25;;;;;;;2.23;1.17;;;27.90;42.30;;;;;;5000057;28;88701;-45
2023/06/30 01:03:57;;;;;;;2.50;1.13;;;27.90;42.30;;;;;;4998631;28;87471;-45
2023/06/30 01:06:28;;;;;;;1.50;1.10;;;27.90;42.30;;;;;;4986486;28;90139;-46
2023/06/30 01:08:59;;;;;;;3.40;1.00;;;27.90;42.20;;;;;;4994265;28;88389;-45
2023/06/30 01:11:27;;;;;;;2.37;1.23;;;27.90;42.20;;;;;;4990898;28;89059;-45
2023/06/30 01:13:56;;;;;;;1.63;0.90;;;27.90;42.20;;;;;;4999982;28;87796;-45
2023/06/30 01:16:24;;;;;;;3.53;1.13;;;27.90;42.20;;;;;;4998130;28;92016;-45
2023/06/30 01:18:54;;;;;;;3.90;0.73;;;27.90;42.20;;;;;;4997105;28;88209;-45
2023/06/30 01:21:22;;;;;;;1.53;1.00;;;27.90;42.30;;;;;;4993602;28;88910;-45
2023/06/30 01:23:53;;;;;;;6.03;0.93;;;27.90;42.30;;;;;;4989705;28;87823;-45
2023/06/30 01:26:21;;;;;;;1.60;0.87;;;27.80;42.20;;;;;;4996142;28;88823;-45
2023/06/30 01:28:50;;;;;;;1.67;1.00;;;27.80;42.20;;;;;;4998569;28;88075;-45
2023/06/30 01:31:19;;;;;;;1.47;1.00;;;27.80;42.20;;;;;;5000303;28;88668;-45
2023/06/30 01:33:48;;;;;;;1.77;0.97;;;27.80;42.20;;;;;;4998063;28;87568;-45
2023/06/30 01:36:18;;;;;;;0.70;0.70;;;27.80;42.20;;;;;;4989551;28;88617;-45
2023/06/30 01:38:46;;;;;;;2.40;1.20;;;27.80;42.10;;;;;;4997158;28;89571;-45
2023/06/30 01:41:14;;;;;;;1.93;0.60;;;27.80;42.20;;;;;;4995865;28;89149;-45
2023/06/30 01:43:42;;;;;;;1.03;0.70;;;27.80;42.10;;;;;;5000556;28;88413;-45
2023/06/30 01:46:10;;;;;;;2.20;0.83;;;27.70;42.10;;;;;;5001260;28;89653;-45
2023/06/30 01:48:40;;;;;;;1.93;0.60;;;27.80;42.10;;;;;;5002170;28;89023;-45
2023/06/30 01:51:08;;;;;;;1.10;0.40;;;27.70;42.10;;;;;;4990556;28;88674;-45
2023/06/30 01:53:39;;;;;;;1.17;1.07;;;27.70;42.10;;;;;;4999823;28;87703;-45
2023/06/30 01:56:07;;;;;;;1.43;0.60;;;27.70;42.70;;;;;;5003141;28;89680;-45
2023/06/30 01:58:35;;;;;;;0.70;0.70;;;27.70;42.10;;;;;;4991933;28;89316;-45
2023/06/30 02:01:03;;;;;;;2.67;0.73;;;27.70;42.10;;;;;;5003014;28;89125;-45
2023/06/30 02:03:31;;;;;;;2.00;0.77;;;27.70;42.10;;;;;;5003053;28;87649;-45
2023/06/30 02:06:00;;;;;;;0.67;0.47;;;27.70;42.10;;;;;;5002599;28;88603;-45
2023/06/30 02:08:28;;;;;;;0.97;0.70;;;27.70;42.10;;;;;;4999893;28;88783;-45
2023/06/30 02:10:58;;;;;;;0.30;0.30;;;27.70;42.10;;;;;;5002574;28;87798;-45
2023/06/30 02:13:26;;;;;;;1.80;0.97;;;27.70;42.10;;;;;;5000364;28;88018;-45
2023/06/30 02:15:54;;;;;;;2.47;1.40;;;27.70;42.10;;;;;;5002561;28;87486;-45
2023/06/30 02:18:24;;;;;;;2.90;1.00;;;27.60;42.10;;;;;;5000608;28;87899;-45
2023/06/30 02:20:53;;;;;;;1.20;0.67;;;27.60;42.10;;;;;;4995671;28;89401;-45
2023/06/30 02:23:21;;;;;;;0.70;0.70;;;27.60;42.10;;;;;;4983505;28;87457;-45
2023/06/30 02:25:49;;;;;;;0.83;0.83;;;27.60;42.10;;;;;;4986680;28;89640;-45
2023/06/30 02:28:18;;;;;;;1.33;1.07;;;27.60;42.10;;;;;;4984171;28;88271;-45
2023/06/30 02:30:47;;;;;;;1.47;0.90;;;27.60;42.10;;;;;;4988051;28;88857;-45
2023/06/30 02:33:15;;;;;;;2.00;0.80;;;27.60;42.20;;;;;;5001946;28;87645;-45
2023/06/30 02:35:44;;;;;;;1.20;1.07;;;27.60;42.20;;;;;;4979872;28;89371;-45
2023/06/30 02:38:12;;;;;;;4.83;1.50;;;27.60;42.20;;;;;;4995150;28;88995;-45
2023/06/30 02:40:40;;;;;;;2.80;1.00;;;27.60;42.20;;;;;;4998632;28;87560;-45
2023/06/30 02:43:08;;;;;;;1.97;1.63;;;27.60;42.20;;;;;;4983454;28;87463;-45
2023/06/30 02:45:38;;;;;;;3.20;1.60;;;27.60;42.20;;;;;;4992376;28;88632;-45
2023/06/30 02:48:06;;;;;;;2.47;1.53;;;27.60;42.20;;;;;;4998265;28;88512;-45
2023/06/30 02:50:34;;;;;;;2.70;1.60;;;27.60;42.20;;;;;;4988119;28;88135;-45
2023/06/30 02:53:02;;;;;;;3.57;1.67;;;27.60;42.20;;;;;;4998668;28;87681;-45
2023/06/30 02:55:32;;;;;;;3.83;1.40;;;27.60;42.20;;;;;;4992106;28;88628;-45
2023/06/30 02:58:02;;;;;;;2.10;1.37;;;27.60;42.20;;;;;;4993519;28;89048;-45
2023/06/30 03:00:31;;;;;;;5.73;2.37;;;27.60;42.20;;;;;;4982318;28;87745;-45
2023/06/30 03:03:00;;;;;;;3.87;1.90;;;27.50;42.10;;;;;;4996460;28;88020;-45
2023/06/30 03:05:30;;;;;;;3.97;1.70;;;27.50;42.10;;;;;;4981892;28;89301;-45
2023/06/30 03:07:58;;;;;;;3.17;1.70;;;27.50;42.10;;;;;;4992221;28;88086;-45
2023/06/30 03:10:26;;;;;;;6.00;2.13;;;27.50;42.10;;;;;;4984133;28;88828;-45
2023/06/30 03:12:54;;;;;;;2.20;1.90;;;27.50;42.10;;;;;;4992474;28;87857;-45
2023/06/30 03:15:22;;;;;;;3.73;2.13;;;27.50;42.10;;;;;;4997339;28;87598;-46
2023/06/30 03:17:50;;;;;;;2.70;2.10;;;27.50;42.10;;;;;;4985515;28;88956;-45
2023/06/30 03:20:20;;;;;;;3.73;2.03;;;27.50;42.10;;;;;;4992388;28;88827;-45
2023/06/30 03:22:48;;;;;;;3.10;2.30;;;27.50;42.10;;;;;;4995227;28;87775;-45
2023/06/30 03:25:16;;;;;;;2.50;1.70;;;27.50;42.10;;;;;;4996752;28;88534;-45
2023/06/30 03:27:44;;;;;;;2.17;1.57;;;27.50;42.10;;;;;;4993711;28;89245;-45
2023/06/30 03:30:13;;;;;;;3.33;1.93;;;27.40;42.10;;;;;;4998966;28;87653;-45
2023/06/30 03:32:41;;;;;;;2.17;1.63;;;27.50;42.10;;;;;;4995013;28;87733;-45
2023/06/30 03:35:09;;;;;;;3.07;2.10;;;27.40;42.10;;;;;;4997505;28;89993;-45
2023/06/30 03:37:39;;;;;;;3.07;1.83;;;27.40;42.10;;;;;;4987517;28;88234;-45
2023/06/30 03:40:08;;;;;;;3.13;1.93;;;27.40;42.10;;;;;;4988626;28;88993;-45
2023/06/30 03:42:36;;;;;;;4.87;1.57;;;27.40;42.10;;;;;;4982763;28;87728;-45
2023/06/30 03:45:05;;;;;;;2.90;1.90;;;27.40;42.10;;;;;;4998923;28;88070;-45
2023/06/30 03:47:33;;;;;;;3.60;1.50;;;27.40;42.10;;;;;;4994363;28;88137;-45
2023/06/30 03:50:01;;;;;;;4.37;1.43;;;27.40;42.10;;;;;;4993285;28;87972;-45
2023/06/30 03:52:29;;;;;;;3.13;1.83;;;27.40;42.10;;;;;;4987816;28;89835;-45
2023/06/30 03:54:58;;;;;;;2.80;1.47;;;27.40;42.10;;;;;;4979163;28;87581;-45
2023/06/30 03:57:27;;;;;;;3.77;1.63;;;27.40;42.10;;;;;;4996096;28;87489;-45
2023/06/30 03:59:55;;;;;;;2.77;1.80;;;27.30;42.00;;;;;;4988026;28;87582;-45
2023/06/30 04:02:23;;;;;;;2.40;1.43;;;27.30;42.00;;;;;;4986368;28;88385;-45
2023/06/30 04:04:51;;;;;;;4.63;1.37;;;27.30;42.00;;;;;;4995958;28;89668;-45
2023/06/30 04:07:19;;;;;;;3.00;1.20;;;27.30;42.00;;;;;;4992604;28;88221;-46
2023/06/30 04:09:47;;;;;;;1.83;0.80;;;27.30;42.00;;;;;;4998640;28;88846;-45
2023/06/30 04:12:17;;;;;;;1.50;1.10;;;27.30;42.10;;;;;;4994699;28;87530;-45
2023/06/30 04:14:46;;;;;;;1.43;0.93;;;27.30;42.00;;;;;;4983141;28;89554;-45
2023/06/30 04:17:14;;;;;;;1.60;1.10;;;27.40;42.10;;;;;;4988073;28;90158;-45
2023/06/30 04:19:42;;;;;;;1.23;0.77;;;27.30;42.00;;;;;;4991669;28;88999;-45
2023/06/30 04:22:10;;;;;;;1.90;1.03;;;27.30;42.00;;;;;;4986767;28;87733;-45
2023/06/30 04:24:38;;;;;;;2.13;1.03;;;27.40;42.10;;;;;;5000220;28;88562;-45
2023/06/30 04:27:07;;;;;;;0.93;0.77;;;27.40;42.10;;;;;;4998942;28;88535;-45
2023/06/30 04:29:36;;;;;;;3.43;1.10;;;27.50;42.00;;;;;;5000483;28;87846;-45
2023/06/30 04:32:05;;;;;;;2.60;1.00;;;27.90;41.60;;;;;;4998412;28;87674;-45
2023/06/30 04:34:34;;;;;;;2.87;0.80;;;28.30;41.10;;;;;;5000523;28;88749;-45
2023/06/30 04:37:03;;;;;;;1.47;0.70;;;28.80;40.80;;;;;;5000176;28;89057;-45
2023/06/30 04:39:31;;;;;;;2.13;0.90;;;29.10;40.50;;;;;;4984516;28;87601;-45
2023/06/30 04:41:59;;;;;;;2.03;1.10;;;29.40;40.20;;;;;;4989778;28;88056;-45
2023/06/30 04:44:27;;;;;;;1.70;0.70;;;29.60;40.00;;;;;;4986370;28;88562;-45
2023/06/30 04:46:57;;;;;;;3.17;0.87;;;29.80;39.80;;;;;;5000132;28;88205;-45
2023/06/30 04:49:25;;;;;;;0.70;0.70;;;29.90;39.70;;;;;;4985481;28;89996;-45
2023/06/30 04:51:53;;;;;;;1.13;0.70;;;30.10;39.70;;;;;;4996895;28;87681;-45
2023/06/30 04:54:22;;;;;;;1.70;1.20;;;30.10;39.60;;;;;;4987972;28;89351;-45
2023/06/30 04:56:50;;;;;;;0.83;0.83;;;30.10;39.50;;;;;;4999049;28;88334;-46
2023/06/30 04:59:19;;;;;;;1.30;0.80;;;30.10;39.60;;;;;;4995614;28;87815;-45
2023/06/30 05:01:47;;;;;;;2.40;1.00;;;30.00;39.60;;;;;;5000365;28;87681;-45
2023/06/30 05:04:16;;;;;;;0.60;0.60;;;29.80;39.60;;;;;;4990709;28;88560;-45
2023/06/30 05:06:44;;;;;;;0.57;0.50;;;29.60;39.80;;;;;;4998880;28;90159;-45
2023/06/30 05:09:13;;;;;;;1.53;0.77;;;29.40;40.00;;;;;;4987956;28;88778;-45
2023/06/30 05:11:41;;;;;;;1.10;0.57;;;29.20;40.20;;;;;;4983420;28;87598;-45
2023/06/30 05:14:09;;;;;;;4.20;0.87;;;28.90;40.30;;;;;;4992547;28;89972;-45
2023/06/30 05:16:37;;;;;;;2.73;0.70;;;28.80;40.50;;;;;;4995977;28;88401;-45
2023/06/30 05:19:05;;;;;;;1.93;0.90;;;28.60;40.60;;;;;;4992187;28;87968;-45
2023/06/30 05:21:35;;;;;;;3.33;0.70;;;28.60;40.80;;;;;;4992360;28;87441;-45
2023/06/30 05:24:03;;;;;;;2.20;0.90;;;28.40;40.80;;;;;;4985630;28;88590;-45
2023/06/30 05:26:31;;;;;;;2.83;0.80;;;28.40;40.90;;;;;;4980595;28;88274;-45
2023/06/30 05:29:00;;;;;;;0.63;0.53;;;28.30;41.00;;;;;;4986604;28;88837;-45
2023/06/30 05:31:32;;;;;;;3.50;0.80;;;28.20;41.00;;;;;;5000019;28;87767;-45
2023/06/30 05:34:01;;;;;;;1.90;0.67;;;28.20;41.10;;;;;;4991009;28;88532;-45
2023/06/30 05:36:30;;;;;;;2.13;0.53;;;28.10;41.10;;;;;;4996735;28;88143;-45
2023/06/30 05:38:59;;;;;;;1.03;0.60;;;28.10;41.20;;;;;;4996307;28;88808;-45
2023/06/30 05:41:28;;;;;;;0.67;0.50;;;28.10;41.20;;;;;;4980819;28;87657;-45
2023/06/30 05:43:56;;;;;;;0.70;0.53;;;28.10;41.20;;;;;;4981160;28;89441;-45
2023/06/30 05:46:24;;;;;;;0.83;0.70;;;28.10;41.20;;;;;;4980218;28;89290;-45
2023/06/30 05:48:52;;;;;;;0.60;0.40;;;28.10;41.40;;;;;;4989942;28;88091;-45
2023/06/30 05:51:20;;;;;;;0.50;0.40;;;28.10;41.40;;;;;;4994847;28;87696;-45
2023/06/30 05:53:49;;;;;;;1.00;0.50;;;28.00;41.40;;;;;;4996124;28;88849;-45
2023/06/30 05:56:18;;;;;;;1.00;0.57;;;28.10;42.10;;;;;;4998518;28;89968;-45
2023/06/30 05:58:46;;;;;;;0.97;0.57;;;28.10;41.50;;;;;;4985586;28;89947;-45
2023/06/30 06:01:14;;;;;;;0.73;0.40;;;28.10;41.50;;;;;;4990137;28;87711;-47
2023/06/30 06:03:42;;;;;;;1.33;0.60;;;28.10;41.50;;;;;;4993644;28;88851;-47
2023/06/30 06:06:11;;;;;;;1.63;0.60;;;28.10;41.50;;;;;;4998064;28;88370;-47
2023/06/30 06:08:40;;;;;;;0.20;0.20;;;28.10;41.50;;;;;;4989286;28;88902;-47
2023/06/30 06:11:08;;;;;;;0.73;0.50;;;28.20;41.60;;;;;;4993785;28;87467;-47
2023/06/30 06:13:38;;;;;;;0.57;0.50;;;28.20;41.60;;;;;;4989486;28;88891;-45
2023/06/30 06:16:07;;;;;;;0.83;0.40;;;28.20;41.60;;;;;;4998342;28;88031;-45
2023/06/30 06:18:35;;;;;;;0.47;0.47;;;28.20;41.60;;;;;;4997562;28;88806;-46
2023/06/30 06:21:04;;;;;;;0.60;0.53;;;28.20;42.30;;;;;;4993695;28;88020;-46
2023/06/30 06:23:32;;;;;;;0.50;0.50;;;28.30;41.70;;;;;;4983945;28;88651;-46
2023/06/30 06:26:01;;;;;;;0.30;0.30;;;28.30;41.80;;;;;;4988308;28;89079;-46
2023/06/30 06:28:29;;;;;;;0.67;0.47;;;28.30;41.90;;;;;;4990510;28;87793;-46
2023/06/30 06:30:59;;;;;;;1.00;0.70;;;28.30;41.80;;;;;;4989131;28;87715;-46
2023/06/30 06:33:27;;;;;;;0.43;0.43;;;28.30;41.90;;;;;;4993785;28;88656;-46
2023/06/30 06:35:55;;;;;;;2.87;0.40;;;28.30;41.90;;;;;;4986249;28;89524;-46
2023/06/30 06:38:23;;;;;;;0.60;0.60;;;28.30;41.90;;;;;;4993417;28;87814;-46
2023/06/30 06:40:51;;;;;;;0.80;0.63;;;28.40;41.90;;;;;;4985995;28;87564;-46
2023/06/30 06:43:24;;;;;;;0.87;0.47;;;28.40;41.90;;;;;;4992294;28;88558;-46
2023/06/30 06:45:52;;;;;;;1.33;0.80;;;28.40;41.90;;;;;;4982477;28;89289;-46
2023/06/30 06:48:23;;;;;;;0.90;0.47;;;28.50;42.00;;;;;;4982711;28;88991;-46
2023/06/30 06:50:51;;;;;;;0.77;0.60;;;28.40;42.50;;;;;;4996343;28;87532;-46
2023/06/30 06:53:20;;;;;;;0.40;0.40;;;28.40;41.90;;;;;;4987541;28;89101;-45
2023/06/30 06:55:49;;;;;;;2.43;0.90;;;28.50;41.90;;;;;;5001942;28;88034;-46
2023/06/30 06:58:17;;;;;;;0.57;0.53;;;28.50;41.90;;;;;;4994499;28;87877;-45
2023/06/30 07:00:46;;;;;;;0.40;0.40;;;28.50;41.90;;;;;;5002238;28;87499;-46
2023/06/30 07:03:14;;;;;;;1.17;0.70;;;28.50;41.90;;;;;;4999916;28;89014;-46
2023/06/30 07:05:45;;;;;;;0.87;0.60;;;28.50;41.80;;;;;;5000059;28;88051;-46
2023/06/30 07:08:14;;;;;;;1.43;0.50;;;28.50;41.80;;;;;;4999655;28;88738;-45
2023/06/30 07:10:43;;;;;;;2.70;0.83;;;28.50;41.80;;;;;;5001321;28;87899;-45
2023/06/30 07:13:11;;;;;;;1.07;0.60;;;28.50;41.70;;;;;;4999089;28;88508;-45
2023/06/30 07:15:39;;;;;;;1.33;0.90;;;28.50;41.70;;;;;;4989375;28;88109;-46
2023/06/30 07:18:07;;;;;;;0.83;0.40;;;28.50;41.70;;;;;;4992417;28;87342;-45
2023/06/30 07:20:36;;;;;;;0.33;0.30;;;28.40;41.60;;;;;;4988740;28;88061;-46
2023/06/30 07:23:05;;;;;;;1.33;0.47;;;28.40;41.70;;;;;;4996819;28;89926;-45
2023/06/30 07:25:34;;;;;;;0.50;0.30;;;28.40;41.70;;;;;;4989201;28;89493;-45
2023/06/30 07:28:03;;;;;;;0.50;0.50;;;28.40;41.70;;;;;;4996758;28;87465;-45
2023/06/30 07:30:31;;;;;;;0.40;0.40;;;28.40;41.70;;;;;;4988381;28;88443;-46
2023/06/30 07:32:59;;;;;;;1.50;0.60;;;28.50;41.80;;;;;;4992555;28;89690;-46
2023/06/30 07:35:27;;;;;;;2.63;0.63;;;28.40;41.70;;;;;;4995832;28;88990;-46
2023/06/30 07:37:56;;;;;;;1.23;0.47;;;28.40;41.80;;;;;;4988095;28;87691;-46
2023/06/30 07:40:25;;;;;;;0.83;0.47;;;28.50;41.90;;;;;;4982640;28;87691;-45
2023/06/30 07:43:02;;;;;;;0.37;0.37;;;28.50;41.90;;;;;;4984442;28;89292;-46
2023/06/30 07:45:30;;;;;;;1.60;0.83;;;28.50;41.90;;;;;;5001731;28;88096;-45
2023/06/30 07:47:58;;;;;;;1.90;0.60;;;28.60;42.00;;;;;;5001726;28;90385;-45
2023/06/30 07:50:26;;;;;;;2.43;0.67;;;28.60;42.00;;;;;;4992588;28;87554;-46
2023/06/30 07:52:54;;;;;;;0.60;0.37;;;28.60;42.00;;;;;;4995694;28;87347;-45
2023/06/30 07:55:23;;;;;;;2.30;0.57;;;28.60;42.00;;;;;;4993202;28;89028;-45
2023/06/30 07:57:52;;;;;;;2.73;0.60;;;28.60;42.00;;;;;;4981976;28;88994;-46
2023/06/30 08:00:21;;;;;;;1.23;1.00;;;28.60;42.00;;;;;;4997161;28;88031;-46
2023/06/30 08:02:49;;;;;;;0.40;0.40;;;28.60;42.00;;;;;;4994325;28;87532;-49
2023/06/30 08:05:18;;;;;;;3.33;0.57;;;28.60;42.00;;;;;;4993452;28;89073;-46
2023/06/30 08:07:46;;;;;;;0.63;0.50;;;28.60;42.00;;;;;;4993682;28;90576;-46
2023/06/30 08:10:18;;;;;;;0.60;0.50;;;28.60;42.00;;;;;;4999413;28;90945;-46
2023/06/30 08:12:47;;;;;;;0.53;0.53;;;28.60;42.00;;;;;;4989710;28;88578;-45
2023/06/30 08:15:16;;;;;;;0.47;0.47;;;28.60;42.00;;;;;;4992427;28;88685;-47
2023/06/30 08:17:44;;;;;;;1.37;0.50;;;28.60;42.10;;;;;;4985485;28;87940;-45
2023/06/30 08:20:23;;;;;;;0.40;0.40;;;28.60;42.10;;;;;;4992431;28;87601;-45
2023/06/30 08:22:53;;;;;;;0.73;0.70;;;28.60;42.00;;;;;;4982141;28;89688;-46
2023/06/30 08:25:22;;;;;;;0.80;0.47;;;28.60;42.00;;;;;;4990956;28;88026;-46
2023/06/30 08:27:51;;;;;;;0.50;0.50;;;28.60;41.90;;;;;;5001136;28;88879;-46
2023/06/30 08:30:20;;;;;;;1.10;0.60;;;28.60;41.90;;;;;;4984389;28;87469;-46
2023/06/30 08:32:51;;;;;;;0.40;0.40;;;28.60;41.90;;;;;;4983362;28;88535;-45
2023/06/30 08:35:20;;;;;;;0.50;0.50;;;28.50;41.80;;;;;;4986369;28;88038;-46
2023/06/30 08:37:48;;;;;;;0.53;0.50;;;28.50;41.80;;;;;;4992230;28;88889;-46
2023/06/30 08:40:22;;;;;;;0.87;0.57;;;28.50;41.90;;;;;;4989866;28;87486;-46
2023/06/30 08:42:50;;;;;;;0.93;0.40;;;28.50;41.90;;;;;;4999350;28;90633;-46
2023/06/30 08:45:20;;;;;;;0.67;0.60;;;28.50;41.90;;;;;;4995740;28;87620;-46
2023/06/30 08:47:49;;;;;;;0.50;0.40;;;28.50;41.90;;;;;;4997900;28;89024;-46
2023/06/30 08:50:17;;;;;;;0.87;0.47;;;28.50;41.90;;;;;;4990396;28;89204;-48
2023/06/30 08:52:45;;;;;;;2.07;0.90;;;28.50;41.90;;;;;;4993008;28;88584;-47
2023/06/30 08:55:13;;;;;;;0.40;0.40;;;28.50;42.00;;;;;;4988919;28;88916;-47
2023/06/30 08:57:42;;;;;;;1.20;0.30;;;28.60;42.00;;;;;;4999166;28;89001;-48
2023/06/30 09:00:11;;;;;;;0.30;0.30;;;28.60;42.70;;;;;;4993690;28;89011;-49
2023/06/30 09:02:40;;;;;;;1.07;0.60;;;28.60;42.10;;;;;;5000702;28;88913;-48
2023/06/30 09:05:09;;;;;;;0.93;0.57;;;28.60;42.10;;;;;;4989963;28;89175;-48
2023/06/30 09:07:40;;;;;;;0.77;0.50;;;28.60;42.10;;;;;;4993987;28;87742;-48
2023/06/30 09:10:09;;;;;;;0.50;0.50;;;28.60;42.10;;;;;;4989096;28;89469;-49
2023/06/30 09:12:38;;;;;;;0.80;0.50;;;28.60;42.10;;;;;;4991900;28;89668;-48
2023/06/30 09:15:07;;;;;;;1.40;0.77;;;28.60;42.10;;;;;;4988920;28;90075;-48
2023/06/30 09:17:35;;;;;;;0.40;0.40;;;28.60;42.10;;;;;;4990852;28;89224;-48
2023/06/30 09:20:06;;;;;;;0.63;0.47;;;28.60;42.10;;;;;;4993526;28;87705;-48
2023/06/30 09:22:34;;;;;;;0.60;0.57;;;28.60;42.10;;;;;;4984601;28;89957;-50
2023/06/30 09:25:41;;;;;;;2.00;0.60;;;28.60;42.10;;;;;;4996037;28;88337;-48
2023/06/30 09:28:11;;;;;;;0.83;0.37;;;28.60;42.20;;;;;;4987411;28;89358;-48
2023/06/30 09:30:41;;;;;;;1.23;0.50;;;28.70;42.30;;;;;;4986303;28;88134;-48
2023/06/30 09:33:09;;;;;;;1.10;0.40;;;28.60;42.30;;;;;;4990490;28;88514;-49
2023/06/30 09:35:39;;;;;;;1.60;0.50;;;28.60;42.30;;;;;;4990331;28;88040;-49
2023/06/30 09:38:12;;;;;;;4.90;0.60;;;28.60;42.30;;;;;;4993368;28;90148;-48
2023/06/30 09:40:43;;;;;;;2.47;1.00;;;28.60;42.30;;;;;;4996918;28;87810;-48
2023/06/30 09:43:16;;;;;;;3.13;0.70;;;28.60;42.30;;;;;;4984815;28;88727;-48
2023/06/30 09:45:45;;;;;;;0.70;0.63;;;28.60;42.20;;;;;;4986475;28;88031;-48
2023/06/30 09:48:14;;;;;;;0.40;0.40;;;28.60;42.10;;;;;;4985265;28;87441;-48
2023/06/30 09:50:43;;;;;;;1.13;0.67;;;28.60;42.10;;;;;;4990755;28;87677;-48
2023/06/30 09:53:11;;;;;;;6.00;1.20;;;28.60;42.00;;;;;;4996923;28;89657;-48
2023/06/30 09:55:47;;;;;;;5.80;0.77;;;28.60;42.00;;;;;;4982195;28;89128;-48
2023/06/30 09:58:16;;;;;;;2.80;0.60;;;28.60;41.90;;;;;;4987577;28;87631;-48
2023/06/30 10:00:45;;;;;;;1.77;0.80;;;28.50;41.70;;;;;;4991394;28;87403;-48
2023/06/30 10:03:16;;;;;;;1.50;0.67;;;28.50;41.70;;;;;;4983327;28;89569;-48
2023/06/30 10:05:47;;;;;;;0.60;0.57;;;28.40;41.50;;;;;;4984191;28;89002;-48
2023/06/30 10:08:17;;;;;;;1.30;0.50;;;28.40;41.40;;;;;;4986722;28;89760;-48
2023/06/30 10:10:45;;;;;;;0.80;0.63;;;28.40;41.40;;;;;;4996499;28;87363;-48
2023/06/30 10:13:15;;;;;;;0.93;0.70;;;28.40;41.30;;;;;;4986991;28;88659;-48
2023/06/30 10:15:43;;;;;;;0.50;0.50;;;28.40;41.20;;;;;;4985098;28;89198;-48
2023/06/30 10:18:12;;;;;;;2.60;0.80;;;28.30;41.10;;;;;;4990133;28;87772;-48
2023/06/30 10:20:40;;;;;;;0.50;0.40;;;28.30;41.00;;;;;;4991995;28;87637;-48
2023/06/30 10:23:18;;;;;;;1.40;0.57;;;28.30;41.00;;;;;;4994940;28;89710;-48
2023/06/30 10:25:46;;;;;;;1.70;0.60;;;28.30;40.90;;;;;;4987259;28;88876;-48
2023/06/30 10:28:15;;;;;;;8.93;0.93;;;28.30;40.80;;;;;;4993491;28;88474;-48
2023/06/30 10:30:43;;;;;;;0.40;0.40;;;28.30;40.70;;;;;;4986833;28;88936;-48
2023/06/30 10:33:11;;;;;;;0.77;0.53;;;28.30;40.70;;;;;;4993617;28;88585;-49
2023/06/30 10:35:40;;;;;;;0.67;0.47;;;28.30;40.60;;;;;;4993960;28;87977;-48
2023/06/30 10:38:08;;;;;;;2.40;0.60;;;28.30;40.50;;;;;;4989419;28;89183;-48
2023/06/30 10:40:38;;;;;;;2.30;0.60;;;28.20;40.30;;;;;;4994998;28;87682;-48
2023/06/30 10:43:06;;;;;;;2.13;0.40;;;28.20;40.30;;;;;;4995975;28;88627;-48
2023/06/30 10:45:35;;;;;;;0.90;0.67;;;28.10;40.20;;;;;;4991121;28;88395;-48
2023/06/30 10:48:09;;;;;;;1.67;0.60;;;28.20;40.30;;;;;;4989453;28;88781;-47
2023/06/30 10:50:41;;;;;;;0.77;0.60;;;28.20;40.20;;;;;;4991229;28;87577;-48
2023/06/30 10:53:09;;;;;;;0.30;0.30;;;28.20;40.20;;;;;;4992299;28;88435;-48
2023/06/30 10:55:43;;;;;;;0.60;0.60;;;28.30;40.20;;;;;;4991548;28;89229;-48
2023/06/30 10:58:14;;;;;;;0.43;0.40;;;28.40;40.20;;;;;;4996247;28;88694;-48
2023/06/30 11:00:42;;;;;;;1.03;0.70;;;28.40;40.10;;;;;;4995704;28;87669;-47
2023/06/30 11:03:10;;;;;;;1.80;0.60;;;28.40;40.10;;;;;;4989119;28;88659;-48
2023/06/30 11:05:39;;;;;;;2.70;0.70;;;28.40;40.00;;;;;;5001315;28;88958;-48
2023/06/30 11:08:09;;;;;;;3.30;0.63;;;28.50;40.00;;;;;;4986822;28;87438;-48
2023/06/30 11:10:39;;;;;;;3.73;0.60;;;28.50;40.00;;;;;;4994420;28;87709;-48
2023/06/30 11:13:09;;;;;;;2.03;0.53;;;28.50;40.10;;;;;;4994899;28;88332;-48
2023/06/30 11:15:39;;;;;;;0.40;0.40;;;28.60;40.20;;;;;;4998912;28;88018;-48
2023/06/30 11:18:10;;;;;;;1.20;0.70;;;28.60;40.20;;;;;;4983775;28;88972;-47
2023/06/30 11:20:39;;;;;;;0.60;0.60;;;28.60;40.20;;;;;;4994600;28;89341;-48
2023/06/30 11:23:16;;;;;;;1.10;0.60;;;28.60;40.30;;;;;;4985209;28;88549;-47
2023/06/30 11:25:45;;;;;;;2.73;0.93;;;28.60;40.30;;;;;;4987084;28;89235;-48
2023/06/30 11:28:13;;;;;;;1.90;0.73;;;28.60;40.40;;;;;;5001973;28;87752;-48
2023/06/30 11:30:42;;;;;;;5.03;1.27;;;28.70;40.50;;;;;;4990219;28;87645;-48
2023/06/30 11:33:10;;;;;;;0.90;0.70;;;28.70;40.60;;;;;;5002053;28;89454;-48
2023/06/30 11:35:38;;;;;;;1.00;0.63;;;28.70;40.70;;;;;;4993751;28;88109;-50
2023/06/30 11:38:07;;;;;;;4.17;0.90;;;28.70;40.80;;;;;;4982096;28;87339;-49
2023/06/30 11:40:36;;;;;;;1.90;1.10;;;28.70;40.90;;;;;;4982409;28;87502;-49
2023/06/30 11:43:05;;;;;;;2.03;0.90;;;28.70;40.90;;;;;;4986042;28;88598;-50
2023/06/30 11:45:33;;;;;;;2.03;0.87;;;28.70;41.00;;;;;;4994825;28;89969;-49
2023/06/30 11:48:01;;;;;;;4.60;1.30;;;28.80;41.20;;;;;;4992060;28;89858;-49
2023/06/30 11:50:30;;;;;;;5.50;1.40;;;28.80;41.30;;;;;;4987645;28;88475;-49
2023/06/30 11:52:58;;;;;;;1.93;0.90;;;28.80;41.40;;;;;;5001798;28;87435;-49
2023/06/30 11:55:28;;;;;;;1.53;0.90;;;28.80;41.50;;;;;;5001694;28;88099;-49
2023/06/30 11:57:56;;;;;;;0.90;0.70;;;28.80;41.50;;;;;;5001530;28;88873;-49
2023/06/30 12:00:26;;;;;;;2.87;0.87;;;28.80;41.60;;;;;;5001932;28;87640;-49
2023/06/30 12:02:54;;;;;;;1.83;0.90;;;28.90;41.70;;;;;;5001666;28;89782;-49
2023/06/30 12:05:23;;;;;;;2.70;0.70;;;28.90;41.80;;;;;;5001682;28;88989;-49
2023/06/30 12:07:52;;;;;;;3.10;0.77;;;28.90;41.90;;;;;;5001229;28;89166;-49
2023/06/30 12:10:36;;;;;;;2.37;1.03;;;28.90;42.00;;;;;;5001365;28;87827;-49
2023/06/30 12:13:06;;;;;;;2.07;0.90;;;28.90;42.10;;;;;;5001420;28;89683;-49
2023/06/30 12:15:36;;;;;;;1.33;0.90;;;28.90;42.10;;;;;;5001137;28;87290;-49
2023/06/30 12:18:05;;;;;;;3.43;1.10;;;28.90;42.10;;;;;;5001517;28;87728;-49
2023/06/30 12:20:35;;;;;;;2.30;0.90;;;28.90;42.20;;;;;;5001625;28;87662;-49
2023/06/30 12:23:04;;;;;;;2.70;0.90;;;28.90;42.30;;;;;;5001457;28;88544;-49
2023/06/30 12:25:33;;;;;;;1.50;0.73;;;28.90;42.30;;;;;;5001160;28;88034;-49
2023/06/30 12:28:03;;;;;;;1.20;0.70;;;29.00;42.40;;;;;;5001493;28;87713;-49
2023/06/30 12:30:31;;;;;;;1.00;0.77;;;29.00;42.40;;;;;;5001666;28;87123;-49
2023/06/30 12:33:01;;;;;;;3.17;0.90;;;29.00;42.50;;;;;;5001250;28;88571;-49
2023/06/30 12:35:30;;;;;;;3.13;0.93;;;29.10;42.60;;;;;;5000312;28;89041;-49
2023/06/30 12:37:59;;;;;;;1.53;0.80;;;29.10;42.60;;;;;;5001194;28;89592;-49
2023/06/30 12:40:28;;;;;;;2.20;0.83;;;29.10;42.60;;;;;;5001243;28;87677;-49
2023/06/30 12:42:57;;;;;;;2.23;0.90;;;29.10;42.60;;;;;;5000697;28;88528;-49
2023/06/30 12:45:25;;;;;;;1.00;0.77;;;29.10;42.70;;;;;;5000956;28;88353;-49
2023/06/30 12:47:53;;;;;;;2.77;0.70;;;29.10;42.80;;;;;;5000733;28;88596;-49
2023/06/30 12:50:23;;;;;;;2.07;0.87;;;29.10;42.80;;;;;;5001095;28;87684;-49
2023/06/30 12:52:51;;;;;;;3.10;1.13;;;29.10;42.80;;;;;;5001127;28;89612;-49
2023/06/30 12:55:21;;;;;;;2.77;0.80;;;29.20;42.90;;;;;;5000550;28;88085;-49
2023/06/30 12:57:49;;;;;;;5.03;0.80;;;29.20;43.00;;;;;;5000578;28;88984;-49